createdAt,value
2023-02-03T00:01:39.260Z,100485.70
2023-02-03T00:04:10.552Z,100492.52
2023-02-03T00:06:39.854Z,100493.91
2023-02-03T00:09:08.804Z,100495.98
2023-02-03T00:11:37.864Z,100499.63
2023-02-03T00:14:07.450Z,100499.75
2023-02-03T00:16:36.541Z,100501.09
2023-02-03T00:19:05.545Z,100496.30
2023-02-03T00:21:34.396Z,100489.58
2023-02-03T00:24:03.230Z,100483.92
2023-02-03T00:26:32.217Z,100486.80
2023-02-03T00:29:01.830Z,100490.89
2023-02-03T00:31:30.710Z,100489.98
2023-02-03T00:33:59.810Z,100490.96
2023-02-03T00:36:28.607Z,100498.59
2023-02-03T00:38:57.902Z,100496.62
2023-02-03T00:41:30.790Z,100495.51
2023-02-03T00:44:00.183Z,100490.75
2023-02-03T00:46:32.355Z,100488.60
2023-02-03T00:49:01.556Z,100479.10
2023-02-03T00:51:30.344Z,100477.84
2023-02-03T00:53:59.175Z,100471.33
2023-02-03T00:56:27.914Z,100474.63
2023-02-03T00:58:56.803Z,100472.73
2023-02-03T01:01:28.423Z,100468.39
2023-02-03T01:03:57.457Z,100473.58
2023-02-03T01:06:29.316Z,100470.77
2023-02-03T01:09:03.462Z,100472.08
2023-02-03T01:11:33.045Z,100470.10
2023-02-03T01:14:02.043Z,100465.13
2023-02-03T01:16:35.473Z,100460.39
2023-02-03T01:19:04.629Z,100459.52
2023-02-03T01:21:35.773Z,100457.76
2023-02-03T01:24:04.780Z,100453.20
2023-02-03T01:26:33.553Z,100457.54
2023-02-03T01:29:02.970Z,100454.00
2023-02-03T01:31:34.955Z,100455.89
2023-02-03T01:34:03.815Z,100453.13
2023-02-03T01:36:36.324Z,100450.00
2023-02-03T01:39:05.864Z,100445.27
2023-02-03T01:41:37.492Z,100436.52
2023-02-03T01:44:38.984Z,100436.02
2023-02-03T01:47:16.085Z,100432.92
2023-02-03T01:49:49.686Z,100431.75
2023-02-03T01:52:21.758Z,100430.21
2023-02-03T01:54:53.925Z,100426.45
2023-02-03T01:57:24.684Z,100426.70
2023-02-03T01:59:56.107Z,100428.35
2023-02-03T02:02:25.359Z,100419.66
2023-02-03T02:05:01.706Z,100412.36
2023-02-03T02:07:32.973Z,100410.13
2023-02-03T02:10:02.285Z,100407.52
2023-02-03T02:12:31.026Z,100401.98
2023-02-03T02:15:00.152Z,100396.94
2023-02-03T02:17:46.032Z,100391.17
2023-02-03T02:20:44.276Z,100377.38
2023-02-03T02:23:36.615Z,100360.48
2023-02-03T02:26:33.664Z,100350.73
2023-02-03T02:29:19.962Z,100351.46
2023-02-03T02:32:05.155Z,100349.44
2023-02-03T02:34:47.139Z,100344.94
2023-02-03T02:37:26.528Z,100344.44
2023-02-03T02:40:06.172Z,100340.13
2023-02-03T02:42:39.306Z,100340.65
2023-02-03T02:45:14.975Z,100343.25
2023-02-03T02:47:45.177Z,100343.05
2023-02-03T02:50:18.441Z,100339.55
2023-02-03T02:52:50.340Z,100348.42
2023-02-03T02:55:24.476Z,100351.59
2023-02-03T02:57:58.147Z,100354.20
2023-02-03T03:00:31.271Z,100358.55
2023-02-03T03:03:12.009Z,100357.47
2023-02-03T03:05:44.713Z,100348.05
2023-02-03T03:08:17.369Z,100342.09
2023-02-03T03:10:47.282Z,100346.42
2023-02-03T03:13:22.837Z,100343.97
2023-02-03T03:15:56.164Z,100338.44
2023-02-03T03:18:30.707Z,100339.91
2023-02-03T03:21:05.394Z,100330.27
2023-02-03T03:23:38.999Z,100322.90
2023-02-03T03:26:14.108Z,100314.98
2023-02-03T03:28:48.989Z,100307.91
2023-02-03T03:31:19.375Z,100302.58
2023-02-03T03:33:49.080Z,100307.67
2023-02-03T03:36:26.882Z,100295.50
2023-02-03T03:39:02.440Z,100293.25
2023-02-03T03:41:40.936Z,100289.11
2023-02-03T03:44:15.164Z,100284.80
2023-02-03T03:46:51.323Z,100284.27
2023-02-03T03:49:23.495Z,100277.48
2023-02-03T03:51:58.221Z,100269.77
2023-02-03T03:54:31.310Z,100262.80
2023-02-03T03:57:04.970Z,100259.33
2023-02-03T03:59:40.151Z,100257.41
2023-02-03T04:02:13.744Z,100254.65
2023-02-03T04:04:54.111Z,100249.27
2023-02-03T04:07:22.913Z,100253.25
2023-02-03T04:09:51.917Z,100246.96
2023-02-03T04:12:24.199Z,100247.30
2023-02-03T04:14:52.855Z,100250.27
2023-02-03T04:17:21.846Z,100251.14
2023-02-03T04:19:51.042Z,100247.80
2023-02-03T04:22:40.414Z,100242.87
2023-02-03T04:25:10.267Z,100243.02
2023-02-03T04:27:39.077Z,100250.30
2023-02-03T04:30:10.979Z,100245.55
2023-02-03T04:32:40.285Z,100232.77
2023-02-03T04:35:09.601Z,100220.73
2023-02-03T04:37:41.658Z,100214.11
2023-02-03T04:40:14.127Z,100203.08
2023-02-03T04:42:42.912Z,100194.34
2023-02-03T04:45:17.759Z,100191.83
2023-02-03T04:47:54.044Z,100192.27
2023-02-03T04:50:26.499Z,100188.77
2023-02-03T04:53:08.413Z,100188.28
2023-02-03T04:55:39.930Z,100182.05
2023-02-03T04:58:09.448Z,100175.24
2023-02-03T05:00:38.468Z,100169.66
2023-02-03T05:03:16.661Z,100168.27
2023-02-03T05:05:58.171Z,100167.02
2023-02-03T05:08:27.220Z,100162.50
2023-02-03T05:11:09.843Z,100164.38
2023-02-03T05:13:38.825Z,100151.48
2023-02-03T05:16:10.217Z,100150.05
2023-02-03T05:18:39.063Z,100148.63
2023-02-03T05:21:12.650Z,100137.73
2023-02-03T05:23:50.879Z,100134.70
2023-02-03T05:26:19.866Z,100121.43
2023-02-03T05:28:48.988Z,100113.55
2023-02-03T05:31:21.677Z,100116.52
2023-02-03T05:33:50.740Z,100113.40
2023-02-03T05:36:19.797Z,100103.67
2023-02-03T05:39:01.749Z,100098.45
2023-02-03T05:41:49.033Z,100086.60
2023-02-03T05:44:21.855Z,100087.09
2023-02-03T05:47:04.577Z,100087.10
2023-02-03T05:49:36.928Z,100081.86
2023-02-03T05:52:05.815Z,100079.90
2023-02-03T05:54:39.606Z,100073.42
2023-02-03T05:57:08.326Z,100075.13
2023-02-03T05:59:37.098Z,100067.96
2023-02-03T06:02:05.995Z,100065.89
2023-02-03T06:04:35.046Z,100062.94
2023-02-03T06:07:06.740Z,100074.81
2023-02-03T06:09:35.835Z,100073.09
2023-02-03T06:12:08.101Z,100070.48
2023-02-03T06:14:39.763Z,100068.22
2023-02-03T06:17:19.709Z,100059.86
2023-02-03T06:20:11.705Z,100055.66
2023-02-03T06:23:01.073Z,100045.02
2023-02-03T06:25:32.647Z,100046.23
2023-02-03T06:28:05.089Z,100050.95
2023-02-03T06:30:34.534Z,100050.05
2023-02-03T06:33:03.868Z,100047.61
2023-02-03T06:35:43.970Z,100044.08
2023-02-03T06:38:15.762Z,100037.75
2023-02-03T06:40:47.494Z,100024.66
2023-02-03T06:43:16.921Z,100014.02
2023-02-03T06:45:47.081Z,100013.14
2023-02-03T06:48:16.094Z,100011.54
2023-02-03T06:50:48.454Z,100010.29
2023-02-03T06:53:26.352Z,100011.81
2023-02-03T06:55:55.207Z,100016.44
2023-02-03T06:58:24.260Z,100016.19
2023-02-03T07:00:56.254Z,100014.11
2023-02-03T07:03:25.468Z,100009.85
2023-02-03T07:05:54.368Z,100010.11
2023-02-03T07:08:26.041Z,100010.48
2023-02-03T07:11:04.225Z,100006.70
2023-02-03T07:13:33.056Z,100003.42
2023-02-03T07:16:06.435Z,100000.35
2023-02-03T07:18:46.764Z,99998.13
2023-02-03T07:21:21.900Z,99992.13
2023-02-03T07:23:50.898Z,99984.38
2023-02-03T07:26:22.549Z,99974.55
2023-02-03T07:29:11.617Z,99969.03
2023-02-03T07:31:40.797Z,99961.42
2023-02-03T07:34:15.441Z,99956.57
2023-02-03T07:36:53.341Z,99950.70
2023-02-03T07:39:25.330Z,99944.28
2023-02-03T07:41:54.407Z,99941.02
2023-02-03T07:44:29.052Z,99936.16
2023-02-03T07:46:58.091Z,99933.70
2023-02-03T07:49:27.033Z,99927.66
2023-02-03T07:51:56.345Z,99920.57
2023-02-03T07:54:25.203Z,99913.63
2023-02-03T07:56:53.948Z,99907.88
2023-02-03T07:59:22.985Z,99899.21
2023-02-03T08:01:55.828Z,99896.27
2023-02-03T08:04:35.951Z,99892.05
2023-02-03T08:07:05.183Z,99884.67
2023-02-03T08:09:36.677Z,99878.39
2023-02-03T08:12:08.965Z,99874.33
2023-02-03T08:14:37.647Z,99858.42
2023-02-03T08:17:15.735Z,99849.12
2023-02-03T08:19:44.672Z,99843.13
2023-02-03T08:22:16.395Z,99833.09
2023-02-03T08:24:46.300Z,99823.31
2023-02-03T08:27:16.265Z,99810.23
2023-02-03T08:29:45.846Z,99799.89
2023-02-03T08:32:16.897Z,99788.36
2023-02-03T08:34:46.047Z,99780.73
2023-02-03T08:37:17.309Z,99767.42
2023-02-03T08:39:46.425Z,99767.38
2023-02-03T08:42:15.147Z,99767.34
2023-02-03T08:44:56.056Z,99741.05
2023-02-03T08:47:26.864Z,99751.61
2023-02-03T08:50:16.459Z,99732.77
2023-02-03T08:52:54.754Z,99758.04
2023-02-03T08:55:24.193Z,99736.90
2023-02-03T08:58:13.545Z,99727.29
2023-02-03T09:00:43.307Z,99716.81
2023-02-03T09:03:17.796Z,99701.08
2023-02-03T09:06:08.697Z,99689.88
2023-02-03T09:08:37.716Z,99682.79
2023-02-03T09:11:09.257Z,99677.59
2023-02-03T09:13:45.414Z,99669.31
2023-02-03T09:16:27.604Z,99669.97
2023-02-03T09:19:03.893Z,99662.67
2023-02-03T09:21:36.043Z,99653.11
2023-02-03T09:24:10.132Z,99646.65
2023-02-03T09:26:39.076Z,99635.58
2023-02-03T09:29:12.043Z,99630.27
2023-02-03T09:31:41.234Z,99622.39
2023-02-03T09:34:15.570Z,99620.61
2023-02-03T09:36:48.321Z,99623.63
2023-02-03T09:39:17.726Z,99614.80
2023-02-03T09:42:16.266Z,99606.35
2023-02-03T09:45:10.211Z,99598.73
2023-02-03T09:47:43.418Z,99587.19
2023-02-03T09:50:20.161Z,99580.14
2023-02-03T09:52:49.956Z,99568.24
2023-02-03T09:55:33.408Z,99564.48
2023-02-03T09:58:05.892Z,99561.36
2023-02-03T10:00:40.214Z,99560.20
2023-02-03T10:03:20.267Z,99551.30
2023-02-03T10:06:16.289Z,99548.70
2023-02-03T10:09:32.285Z,99537.86
2023-02-03T10:12:42.834Z,99534.30
2023-02-03T10:16:04.212Z,99524.74
2023-02-03T10:18:40.328Z,99501.68
2023-02-03T10:21:16.798Z,99490.26
2023-02-03T10:23:50.607Z,99477.63
2023-02-03T10:26:25.961Z,99479.20
2023-02-03T10:29:04.897Z,99470.74
2023-02-03T10:31:38.477Z,99465.41
2023-02-03T10:34:12.211Z,99456.87
2023-02-03T10:36:54.020Z,99444.20
2023-02-03T10:39:47.897Z,99435.30
2023-02-03T10:42:47.205Z,99425.27
2023-02-03T10:45:26.883Z,99407.54
2023-02-03T10:48:00.103Z,99394.96
2023-02-03T10:50:44.011Z,99381.06
2023-02-03T10:53:24.651Z,99376.45
2023-02-03T10:56:02.603Z,99365.17
2023-02-03T10:58:50.212Z,99360.86
2023-02-03T11:01:44.672Z,99344.42
2023-02-03T11:04:26.114Z,99334.70
2023-02-03T11:06:57.668Z,99321.23
2023-02-03T11:09:33.828Z,99310.20
2023-02-03T11:12:21.670Z,99301.20
2023-02-03T11:15:05.986Z,99295.15
2023-02-03T11:17:43.611Z,99283.37
2023-02-03T11:20:36.087Z,99276.79
2023-02-03T11:23:10.682Z,99273.68
2023-02-03T11:25:39.573Z,99260.74
2023-02-03T11:28:12.633Z,99254.67
2023-02-03T11:30:42.203Z,99243.73
2023-02-03T11:33:20.273Z,99237.33
2023-02-03T11:35:58.441Z,99229.57
2023-02-03T11:38:32.611Z,99222.30
2023-02-03T11:41:02.306Z,99213.14
2023-02-03T11:43:31.194Z,99215.15
2023-02-03T11:46:07.287Z,99210.31
2023-02-03T11:48:44.381Z,99195.68
2023-02-03T11:51:21.692Z,99190.32
2023-02-03T11:54:06.752Z,99183.96
2023-02-03T11:56:51.072Z,99173.77
2023-02-03T11:59:41.240Z,99165.42
2023-02-03T12:02:45.926Z,99159.17
2023-02-03T12:05:40.165Z,99154.83
2023-02-03T12:08:26.209Z,99147.28
2023-02-03T12:11:07.804Z,99137.71
2023-02-03T12:13:56.938Z,99123.05
2023-02-03T12:17:03.376Z,99113.19
2023-02-03T12:19:44.773Z,99100.48
2023-02-03T12:22:25.843Z,99091.56
2023-02-03T12:25:24.320Z,99078.05
2023-02-03T12:28:06.059Z,99068.91
2023-02-03T12:30:41.473Z,99052.45
2023-02-03T12:33:17.089Z,99046.73
2023-02-03T12:35:51.956Z,99038.83
2023-02-03T12:38:31.786Z,99029.06
2023-02-03T12:41:05.423Z,99021.55
2023-02-03T12:43:38.315Z,99016.73
2023-02-03T12:46:15.664Z,99007.78
2023-02-03T12:48:54.311Z,99008.27
2023-02-03T12:51:33.405Z,98997.71
2023-02-03T12:54:22.072Z,98989.76
2023-02-03T12:56:58.231Z,98986.20
2023-02-03T13:00:03.871Z,98983.16
2023-02-03T13:03:06.258Z,98970.44
2023-02-03T13:05:43.579Z,98964.48
2023-02-03T13:08:22.116Z,98950.77
2023-02-03T13:11:19.430Z,98949.71
2023-02-03T13:13:53.031Z,98945.98
2023-02-03T13:16:37.677Z,98941.71
2023-02-03T13:19:16.956Z,98932.13
2023-02-03T13:21:49.943Z,98923.66
2023-02-03T13:24:41.325Z,98911.80
2023-02-03T13:27:49.074Z,98911.80
2023-02-03T13:30:51.115Z,98904.16
2023-02-03T13:34:02.102Z,98885.60
2023-02-03T13:36:50.421Z,98879.41
2023-02-03T13:39:53.678Z,98872.19
2023-02-03T13:42:34.077Z,98864.06
2023-02-03T13:45:28.158Z,98854.65
2023-02-03T13:48:21.635Z,98856.59
2023-02-03T13:51:13.559Z,98850.56
2023-02-03T13:54:02.720Z,98841.27
2023-02-03T13:56:56.768Z,98832.77
2023-02-03T13:59:44.540Z,98832.65
2023-02-03T14:02:49.362Z,98838.05
2023-02-03T14:05:48.162Z,98833.77
2023-02-03T14:08:58.119Z,98827.64
2023-02-03T14:11:42.587Z,98824.62
2023-02-03T14:15:03.431Z,98825.61
2023-02-03T14:17:58.123Z,98831.45
2023-02-03T14:21:18.371Z,98835.83
2023-02-03T14:24:10.853Z,98836.11
2023-02-03T14:26:52.869Z,98841.70
2023-02-03T14:29:28.784Z,98848.33
2023-02-03T14:32:10.074Z,98859.36
2023-02-03T14:34:44.164Z,98855.67
2023-02-03T14:37:33.468Z,98861.93
2023-02-03T14:40:35.097Z,98859.08
2023-02-03T14:43:30.611Z,98851.33
2023-02-03T14:46:29.117Z,98849.00
2023-02-03T14:49:22.962Z,98847.39
2023-02-03T14:52:11.351Z,98846.59
2023-02-03T14:55:14.063Z,98845.70
2023-02-03T14:58:01.702Z,98838.70
2023-02-03T15:00:34.713Z,98842.60
2023-02-03T15:03:22.326Z,98858.92
2023-02-03T15:05:53.761Z,98866.95
2023-02-03T15:08:43.328Z,98849.56
2023-02-03T15:11:33.777Z,98869.90
2023-02-03T15:14:21.648Z,98875.42
2023-02-03T15:16:58.877Z,98879.88
2023-02-03T15:19:34.614Z,98896.80
2023-02-03T15:22:19.140Z,98901.14
2023-02-03T15:25:18.279Z,98902.89
2023-02-03T15:28:19.771Z,98918.55
2023-02-03T15:31:16.943Z,98924.79
2023-02-03T15:33:49.496Z,98924.84
2023-02-03T15:36:26.618Z,98927.55
2023-02-03T15:39:05.856Z,98933.77
2023-02-03T15:41:47.087Z,98932.17
2023-02-03T15:44:26.097Z,98944.65
2023-02-03T15:46:55.461Z,98945.48
2023-02-03T15:49:29.401Z,98951.30
2023-02-03T15:52:09.302Z,98955.86
2023-02-03T15:54:45.139Z,98964.12
2023-02-03T15:57:19.722Z,98970.05
2023-02-03T15:59:56.256Z,98967.35
2023-02-03T16:02:38.710Z,98965.11
2023-02-03T16:05:23.036Z,98968.02
2023-02-03T16:07:52.748Z,98966.99
2023-02-03T16:10:29.108Z,98965.61
2023-02-03T16:13:20.849Z,98964.11
2023-02-03T16:16:03.083Z,98966.27
2023-02-03T16:18:36.008Z,98963.56
2023-02-03T16:21:05.999Z,98965.78
2023-02-03T16:23:37.715Z,98963.30
2023-02-03T16:26:17.624Z,98960.86
2023-02-03T16:29:32.957Z,98961.05
2023-02-03T16:32:36.953Z,98959.33
2023-02-03T16:35:32.987Z,98966.52
2023-02-03T16:38:31.873Z,98976.98
2023-02-03T16:41:36.661Z,98973.35
2023-02-03T16:44:29.458Z,98970.11
2023-02-03T16:47:16.295Z,98970.23
2023-02-03T16:50:06.556Z,98979.94
2023-02-03T16:52:46.563Z,98983.60
2023-02-03T16:55:15.819Z,98981.04
2023-02-03T16:57:58.832Z,98984.97
2023-02-03T17:00:28.086Z,98990.06
2023-02-03T17:02:58.709Z,98988.46
2023-02-03T17:05:31.306Z,98991.25
2023-02-03T17:08:06.851Z,98997.58
2023-02-03T17:10:47.429Z,99005.60
2023-02-03T17:13:24.958Z,99000.72
2023-02-03T17:15:56.766Z,98998.92
2023-02-03T17:18:25.784Z,99009.35
2023-02-03T17:20:54.488Z,99015.83
2023-02-03T17:23:23.360Z,99024.48
2023-02-03T17:25:52.537Z,99028.33
2023-02-03T17:28:25.125Z,99015.77
2023-02-03T17:30:58.853Z,99018.39
2023-02-03T17:33:32.632Z,99018.65
2023-02-03T17:36:04.860Z,99030.63
2023-02-03T17:38:38.090Z,99031.96
2023-02-03T17:55:21.888Z,99062.53
2023-02-03T17:57:50.964Z,99070.54
2023-02-03T18:00:22.332Z,99072.41
2023-02-03T18:02:52.069Z,99086.89
2023-02-03T18:05:28.288Z,99094.58
2023-02-03T18:08:09.017Z,99096.84
2023-02-03T18:10:45.438Z,99103.67
2023-02-03T18:13:17.791Z,99100.59
2023-02-03T18:15:49.927Z,99092.77
2023-02-03T18:18:20.837Z,99093.77
2023-02-03T18:20:49.968Z,99095.33
2023-02-03T18:23:29.664Z,99091.66
2023-02-03T18:25:58.897Z,99098.36
2023-02-03T18:28:28.039Z,99098.86
2023-02-03T18:31:00.684Z,99094.66
2023-02-03T18:33:39.134Z,99093.30
2023-02-03T18:36:17.824Z,99095.21
2023-02-03T18:39:11.231Z,99098.02
2023-02-03T18:41:58.486Z,99092.64
2023-02-03T18:44:45.051Z,99092.64
2023-02-03T18:47:28.565Z,99086.17
2023-02-03T18:50:02.201Z,99085.80
2023-02-03T18:52:42.850Z,99088.18
2023-02-03T18:55:39.961Z,99088.80
2023-02-03T18:58:39.605Z,99092.03
2023-02-03T19:01:23.786Z,99085.30
2023-02-03T19:03:58.261Z,99089.23
2023-02-03T19:06:29.788Z,99087.39
2023-02-03T19:08:59.259Z,99084.30
2023-02-03T19:11:29.778Z,99080.68
2023-02-03T19:13:58.968Z,99081.61
2023-02-03T19:16:30.906Z,99070.05
2023-02-03T19:19:00.113Z,99076.26
2023-02-03T19:21:30.916Z,99073.99
2023-02-03T19:24:00.048Z,99076.34
2023-02-03T19:26:31.790Z,99074.09
2023-02-03T19:29:10.669Z,99076.37
2023-02-03T19:31:59.932Z,99078.66
2023-02-03T19:34:38.798Z,99079.25
2023-02-03T19:37:07.976Z,99076.58
2023-02-03T19:39:36.776Z,99076.31
2023-02-03T19:42:05.815Z,99067.46
2023-02-03T19:44:36.396Z,99069.68
2023-02-03T19:47:05.530Z,99071.63
2023-02-03T19:49:45.357Z,99071.55
2023-02-03T19:52:14.144Z,99068.48
2023-02-03T19:54:45.221Z,99067.19
2023-02-03T19:57:16.542Z,99073.70
2023-02-03T19:59:45.131Z,99074.45
2023-02-03T20:02:15.368Z,99074.93
2023-02-03T20:04:49.711Z,99071.02
2023-02-03T20:07:22.548Z,99063.48
2023-02-03T20:09:53.613Z,99065.71
2023-02-03T20:12:22.549Z,99070.06
2023-02-03T20:14:55.619Z,99072.16
2023-02-03T20:17:29.990Z,99062.96
2023-02-03T20:20:20.750Z,99067.83
2023-02-03T20:22:52.812Z,99067.13
2023-02-03T20:25:42.573Z,99072.66
2023-02-03T20:28:11.429Z,99074.77
2023-02-03T20:30:41.633Z,99078.06
2023-02-03T20:33:14.746Z,99082.27
2023-02-03T20:35:43.578Z,99083.33
2023-02-03T20:38:14.959Z,99086.86
2023-02-03T20:40:44.210Z,99092.37
2023-02-03T20:43:31.498Z,99091.90
2023-02-03T20:46:12.208Z,99095.42
2023-02-03T20:48:41.286Z,99098.95
2023-02-03T20:51:12.078Z,99098.36
2023-02-03T20:53:42.120Z,99098.33
2023-02-03T20:56:16.127Z,99100.14
2023-02-03T20:58:48.655Z,99099.55
2023-02-03T21:01:19.566Z,99102.73
2023-02-03T21:04:07.473Z,99103.55
2023-02-03T21:06:36.285Z,99100.70
2023-02-03T21:09:14.612Z,99108.86
2023-02-03T21:11:46.174Z,99105.41
2023-02-03T21:14:18.103Z,99102.92
2023-02-03T21:16:50.614Z,99097.81
2023-02-03T21:19:29.742Z,99095.86
2023-02-03T21:21:59.421Z,99091.69
2023-02-03T21:24:29.839Z,99086.73
2023-02-03T21:27:00.425Z,99087.19
2023-02-03T21:29:33.195Z,99078.98
2023-02-03T21:32:11.243Z,99080.86
2023-02-03T21:34:51.605Z,99082.30
2023-02-03T21:37:41.234Z,99088.38
2023-02-03T21:40:23.755Z,99084.40
2023-02-03T21:43:01.618Z,99078.06
2023-02-03T21:45:51.266Z,99086.00
2023-02-03T21:48:44.601Z,99076.96
2023-02-03T21:51:18.333Z,99082.78
2023-02-03T21:53:55.114Z,99079.52
2023-02-03T21:56:37.816Z,99079.10
2023-02-03T21:59:17.095Z,99076.48
2023-02-03T22:01:49.385Z,99083.23
2023-02-03T22:04:21.407Z,99078.13
2023-02-03T22:06:53.807Z,99078.77
2023-02-03T22:09:26.693Z,99068.44
2023-02-03T22:12:15.586Z,99074.96
2023-02-03T22:14:44.440Z,99068.36
2023-02-03T22:17:14.400Z,99060.65
2023-02-03T22:19:43.207Z,99055.91
2023-02-03T22:22:12.178Z,99051.75
2023-02-03T22:24:51.947Z,99050.60
2023-02-03T22:27:24.506Z,99054.05
2023-02-03T22:29:56.237Z,99047.92
2023-02-03T22:32:25.246Z,99056.04
2023-02-03T22:34:54.120Z,99057.27
2023-02-03T22:37:27.964Z,99061.60
2023-02-03T22:39:59.384Z,99054.79
2023-02-03T22:42:30.797Z,99053.13
2023-02-03T22:45:02.366Z,99058.83
2023-02-03T22:47:31.075Z,99054.52
2023-02-03T22:49:59.933Z,99053.45
2023-02-03T22:52:28.601Z,99040.45
2023-02-03T22:54:57.405Z,99035.16
2023-02-03T22:57:26.336Z,99044.11
2023-02-03T22:59:55.098Z,99050.60
2023-02-03T23:02:24.070Z,99042.05
2023-02-03T23:04:52.841Z,99050.33
2023-02-03T23:07:21.500Z,99044.77
2023-02-03T23:09:50.455Z,99046.24
2023-02-03T23:12:28.363Z,99045.31
2023-02-03T23:14:57.022Z,99041.08
2023-02-03T23:17:26.247Z,99051.98
2023-02-03T23:19:54.994Z,99039.38
2023-02-03T23:22:27.124Z,99044.01
2023-02-03T23:24:56.203Z,99046.55
2023-02-03T23:27:24.886Z,99038.05
2023-02-03T23:29:53.622Z,99038.14
2023-02-03T23:32:42.695Z,99041.45
2023-02-03T23:35:29.865Z,99033.70
2023-02-03T23:38:05.983Z,99024.83
2023-02-03T23:40:35.120Z,99026.63
2023-02-03T23:43:06.772Z,99021.27
2023-02-03T23:45:39.339Z,99009.58
2023-02-03T23:48:12.017Z,99012.80
2023-02-03T23:50:40.584Z,99011.63
2023-02-03T23:53:18.500Z,99011.13
2023-02-03T23:55:49.593Z,99010.37
2023-02-03T23:58:20.904Z,99008.19
